sensor_id;sensor_type;location;lat;lon;timestamp;P1;durP1;ratioP1;P2;durP2;ratioP2
62736;SDS011;48787;46.494;-1.782;2022-07-23T00:00:43;3.95;;;1.20;;
62736;SDS011;48787;46.494;-1.782;2022-07-23T00:03:09;3.03;;;1.50;;
62736;SDS011;48787;46.494;-1.782;2022-07-23T00:05:35;2.47;;;1.20;;
62736;SDS011;48787;46.494;-1.782;2022-07-23T00:08:01;4.72;;;1.63;;
62736;SDS011;48787;46.494;-1.782;2022-07-23T00:10:28;2.20;;;1.02;;
62736;SDS011;48787;46.494;-1.782;2022-07-23T00:12:54;3.47;;;1.25;;
62736;SDS011;48787;46.494;-1.782;2022-07-23T00:15:20;1.70;;;1.08;;
62736;SDS011;48787;46.494;-1.782;2022-07-23T00:17:46;4.10;;;1.35;;
62736;SDS011;48787;46.494;-1.782;2022-07-23T00:20:12;3.20;;;1.23;;
62736;SDS011;48787;46.494;-1.782;2022-07-23T00:22:51;1.95;;;1.00;;
62736;SDS011;48787;46.494;-1.782;2022-07-23T00:25:17;2.15;;;0.93;;
62736;SDS011;48787;46.494;-1.782;2022-07-23T00:27:43;3.90;;;1.40;;
62736;SDS011;48787;46.494;-1.782;2022-07-23T00:30:10;5.90;;;1.40;;
62736;SDS011;48787;46.494;-1.782;2022-07-23T00:32:49;3.03;;;1.15;;
62736;SDS011;48787;46.494;-1.782;2022-07-23T00:35:16;2.55;;;1.20;;
62736;SDS011;48787;46.494;-1.782;2022-07-23T00:37:42;2.47;;;1.00;;
62736;SDS011;48787;46.494;-1.782;2022-07-23T00:40:08;2.58;;;1.20;;
62736;SDS011;48787;46.494;-1.782;2022-07-23T00:42:34;3.45;;;1.00;;
62736;SDS011;48787;46.494;-1.782;2022-07-23T00:45:00;3.00;;;1.48;;
62736;SDS011;48787;46.494;-1.782;2022-07-23T00:47:26;3.53;;;1.30;;
62736;SDS011;48787;46.494;-1.782;2022-07-23T00:49:52;3.35;;;1.13;;
62736;SDS011;48787;46.494;-1.782;2022-07-23T00:52:19;3.25;;;1.00;;
62736;SDS011;48787;46.494;-1.782;2022-07-23T00:54:45;1.92;;;1.00;;
62736;SDS011;48787;46.494;-1.782;2022-07-23T00:57:11;4.93;;;1.80;;
62736;SDS011;48787;46.494;-1.782;2022-07-23T00:59:38;2.25;;;1.02;;
62736;SDS011;48787;46.494;-1.782;2022-07-23T01:02:04;3.05;;;1.33;;
62736;SDS011;48787;46.494;-1.782;2022-07-23T01:04:30;2.65;;;1.27;;
62736;SDS011;48787;46.494;-1.782;2022-07-23T01:06:56;1.77;;;1.10;;
62736;SDS011;48787;46.494;-1.782;2022-07-23T01:09:23;2.20;;;1.05;;
62736;SDS011;48787;46.494;-1.782;2022-07-23T01:11:49;1.55;;;1.25;;
62736;SDS011;48787;46.494;-1.782;2022-07-23T01:14:17;2.75;;;1.35;;
62736;SDS011;48787;46.494;-1.782;2022-07-23T01:16:44;2.20;;;1.08;;
62736;SDS011;48787;46.494;-1.782;2022-07-23T01:19:10;2.22;;;1.17;;
62736;SDS011;48787;46.494;-1.782;2022-07-23T01:21:36;2.55;;;1.10;;
62736;SDS011;48787;46.494;-1.782;2022-07-23T01:24:03;1.73;;;1.13;;
62736;SDS011;48787;46.494;-1.782;2022-07-23T01:26:29;2.33;;;1.00;;
62736;SDS011;48787;46.494;-1.782;2022-07-23T01:28:55;1.90;;;1.00;;
62736;SDS011;48787;46.494;-1.782;2022-07-23T01:31:21;2.13;;;1.15;;
62736;SDS011;48787;46.494;-1.782;2022-07-23T01:33:48;2.47;;;1.20;;
62736;SDS011;48787;46.494;-1.782;2022-07-23T01:36:14;3.45;;;1.42;;
62736;SDS011;48787;46.494;-1.782;2022-07-23T01:38:40;2.40;;;1.10;;
62736;SDS011;48787;46.494;-1.782;2022-07-23T01:41:06;2.47;;;1.17;;
62736;SDS011;48787;46.494;-1.782;2022-07-23T01:43:32;1.60;;;1.15;;
62736;SDS011;48787;46.494;-1.782;2022-07-23T01:45:58;2.20;;;1.15;;
62736;SDS011;48787;46.494;-1.782;2022-07-23T01:48:24;1.15;;;1.00;;
62736;SDS011;48787;46.494;-1.782;2022-07-23T01:50:50;1.88;;;1.10;;
62736;SDS011;48787;46.494;-1.782;2022-07-23T01:53:16;1.50;;;1.10;;
62736;SDS011;48787;46.494;-1.782;2022-07-23T01:55:42;2.38;;;1.20;;
62736;SDS011;48787;46.494;-1.782;2022-07-23T01:58:08;1.88;;;1.15;;
62736;SDS011;48787;46.494;-1.782;2022-07-23T02:00:34;1.48;;;1.08;;
62736;SDS011;48787;46.494;-1.782;2022-07-23T02:03:00;2.60;;;1.50;;
62736;SDS011;48787;46.494;-1.782;2022-07-23T02:05:27;2.95;;;1.10;;
62736;SDS011;48787;46.494;-1.782;2022-07-23T02:07:59;1.23;;;0.88;;
62736;SDS011;48787;46.494;-1.782;2022-07-23T02:10:26;2.03;;;1.10;;
62736;SDS011;48787;46.494;-1.782;2022-07-23T02:12:52;3.40;;;1.30;;
62736;SDS011;48787;46.494;-1.782;2022-07-23T02:15:18;3.05;;;1.23;;
62736;SDS011;48787;46.494;-1.782;2022-07-23T02:17:45;4.13;;;1.40;;
62736;SDS011;48787;46.494;-1.782;2022-07-23T02:20:11;1.98;;;1.25;;
62736;SDS011;48787;46.494;-1.782;2022-07-23T02:22:37;2.13;;;1.20;;
62736;SDS011;48787;46.494;-1.782;2022-07-23T02:25:04;2.00;;;1.27;;
62736;SDS011;48787;46.494;-1.782;2022-07-23T02:27:31;2.78;;;1.13;;
62736;SDS011;48787;46.494;-1.782;2022-07-23T02:29:57;1.40;;;1.00;;
62736;SDS011;48787;46.494;-1.782;2022-07-23T02:32:23;1.40;;;1.00;;
62736;SDS011;48787;46.494;-1.782;2022-07-23T02:34:49;2.03;;;1.00;;
62736;SDS011;48787;46.494;-1.782;2022-07-23T02:37:15;1.20;;;1.00;;
62736;SDS011;48787;46.494;-1.782;2022-07-23T02:39:41;2.33;;;1.20;;
62736;SDS011;48787;46.494;-1.782;2022-07-23T02:42:07;3.10;;;1.20;;
62736;SDS011;48787;46.494;-1.782;2022-07-23T02:44:33;1.55;;;1.00;;
62736;SDS011;48787;46.494;-1.782;2022-07-23T02:46:59;1.95;;;1.40;;
62736;SDS011;48787;46.494;-1.782;2022-07-23T02:49:26;2.13;;;1.23;;
62736;SDS011;48787;46.494;-1.782;2022-07-23T02:51:52;1.77;;;1.10;;
62736;SDS011;48787;46.494;-1.782;2022-07-23T02:54:18;1.02;;;0.93;;
62736;SDS011;48787;46.494;-1.782;2022-07-23T02:56:44;1.08;;;0.98;;
62736;SDS011;48787;46.494;-1.782;2022-07-23T02:59:10;1.67;;;1.33;;
62736;SDS011;48787;46.494;-1.782;2022-07-23T03:01:36;3.28;;;1.10;;
62736;SDS011;48787;46.494;-1.782;2022-07-23T03:04:02;2.35;;;1.00;;
62736;SDS011;48787;46.494;-1.782;2022-07-23T03:06:29;1.83;;;0.90;;
62736;SDS011;48787;46.494;-1.782;2022-07-23T03:08:55;1.73;;;1.20;;
62736;SDS011;48787;46.494;-1.782;2022-07-23T03:11:21;1.27;;;0.90;;
62736;SDS011;48787;46.494;-1.782;2022-07-23T03:13:47;1.25;;;1.10;;
62736;SDS011;48787;46.494;-1.782;2022-07-23T03:16:13;1.45;;;1.20;;
62736;SDS011;48787;46.494;-1.782;2022-07-23T03:18:39;1.90;;;1.00;;
62736;SDS011;48787;46.494;-1.782;2022-07-23T03:21:06;1.20;;;1.10;;
62736;SDS011;48787;46.494;-1.782;2022-07-23T03:23:32;1.60;;;1.10;;
62736;SDS011;48787;46.494;-1.782;2022-07-23T03:25:58;1.92;;;1.02;;
62736;SDS011;48787;46.494;-1.782;2022-07-23T03:28:24;2.00;;;1.10;;
62736;SDS011;48787;46.494;-1.782;2022-07-23T03:30:50;1.83;;;1.15;;
62736;SDS011;48787;46.494;-1.782;2022-07-23T03:33:16;3.17;;;1.10;;
62736;SDS011;48787;46.494;-1.782;2022-07-23T03:35:43;1.38;;;1.05;;
62736;SDS011;48787;46.494;-1.782;2022-07-23T03:38:09;1.75;;;1.02;;
62736;SDS011;48787;46.494;-1.782;2022-07-23T03:40:35;4.55;;;1.10;;
62736;SDS011;48787;46.494;-1.782;2022-07-23T03:43:01;1.15;;;0.88;;
62736;SDS011;48787;46.494;-1.782;2022-07-23T03:45:28;3.92;;;1.15;;
62736;SDS011;48787;46.494;-1.782;2022-07-23T03:47:54;1.52;;;0.90;;
62736;SDS011;48787;46.494;-1.782;2022-07-23T03:50:20;1.25;;;0.93;;
62736;SDS011;48787;46.494;-1.782;2022-07-23T03:52:46;1.33;;;1.00;;
62736;SDS011;48787;46.494;-1.782;2022-07-23T03:55:12;2.47;;;1.13;;
62736;SDS011;48787;46.494;-1.782;2022-07-23T03:57:38;0.90;;;0.90;;
62736;SDS011;48787;46.494;-1.782;2022-07-23T04:00:04;0.80;;;0.80;;
62736;SDS011;48787;46.494;-1.782;2022-07-23T04:02:32;1.20;;;1.10;;
62736;SDS011;48787;46.494;-1.782;2022-07-23T04:04:58;3.30;;;1.15;;
62736;SDS011;48787;46.494;-1.782;2022-07-23T04:07:25;1.40;;;1.00;;
62736;SDS011;48787;46.494;-1.782;2022-07-23T04:09:52;1.20;;;0.90;;
62736;SDS011;48787;46.494;-1.782;2022-07-23T04:12:18;2.10;;;1.25;;
62736;SDS011;48787;46.494;-1.782;2022-07-23T04:14:44;1.67;;;1.10;;
62736;SDS011;48787;46.494;-1.782;2022-07-23T04:17:11;1.15;;;0.90;;
62736;SDS011;48787;46.494;-1.782;2022-07-23T04:19:37;1.33;;;1.08;;
62736;SDS011;48787;46.494;-1.782;2022-07-23T04:22:06;1.63;;;1.08;;
62736;SDS011;48787;46.494;-1.782;2022-07-23T04:24:32;1.95;;;1.00;;
62736;SDS011;48787;46.494;-1.782;2022-07-23T04:26:59;1.00;;;0.95;;
62736;SDS011;48787;46.494;-1.782;2022-07-23T04:29:25;2.35;;;0.90;;
62736;SDS011;48787;46.494;-1.782;2022-07-23T04:31:51;1.25;;;0.93;;
62736;SDS011;48787;46.494;-1.782;2022-07-23T04:34:17;1.70;;;1.10;;
62736;SDS011;48787;46.494;-1.782;2022-07-23T04:36:43;0.70;;;0.70;;
62736;SDS011;48787;46.494;-1.782;2022-07-23T04:39:10;1.70;;;1.00;;
62736;SDS011;48787;46.494;-1.782;2022-07-23T04:41:36;2.15;;;0.90;;
62736;SDS011;48787;46.494;-1.782;2022-07-23T04:44:02;1.55;;;1.00;;
62736;SDS011;48787;46.494;-1.782;2022-07-23T04:46:28;1.50;;;0.90;;
62736;SDS011;48787;46.494;-1.782;2022-07-23T04:48:54;1.10;;;1.00;;
62736;SDS011;48787;46.494;-1.782;2022-07-23T04:51:20;1.10;;;0.90;;
62736;SDS011;48787;46.494;-1.782;2022-07-23T04:53:46;0.98;;;0.88;;
62736;SDS011;48787;46.494;-1.782;2022-07-23T04:56:12;1.30;;;1.10;;
62736;SDS011;48787;46.494;-1.782;2022-07-23T04:58:39;0.77;;;0.77;;
62736;SDS011;48787;46.494;-1.782;2022-07-23T05:01:05;1.45;;;0.80;;
62736;SDS011;48787;46.494;-1.782;2022-07-23T05:03:32;0.98;;;0.88;;
62736;SDS011;48787;46.494;-1.782;2022-07-23T05:05:58;1.38;;;1.02;;
62736;SDS011;48787;46.494;-1.782;2022-07-23T05:08:24;0.95;;;0.80;;
62736;SDS011;48787;46.494;-1.782;2022-07-23T05:10:50;1.13;;;1.00;;
62736;SDS011;48787;46.494;-1.782;2022-07-23T05:13:16;1.15;;;0.90;;
62736;SDS011;48787;46.494;-1.782;2022-07-23T05:15:43;1.73;;;0.82;;
62736;SDS011;48787;46.494;-1.782;2022-07-23T05:18:09;1.63;;;1.00;;
62736;SDS011;48787;46.494;-1.782;2022-07-23T05:20:35;1.75;;;1.05;;
62736;SDS011;48787;46.494;-1.782;2022-07-23T05:23:01;1.20;;;1.10;;
62736;SDS011;48787;46.494;-1.782;2022-07-23T05:25:27;1.27;;;0.80;;
62736;SDS011;48787;46.494;-1.782;2022-07-23T05:27:53;1.38;;;1.00;;
62736;SDS011;48787;46.494;-1.782;2022-07-23T05:30:19;1.05;;;0.88;;
62736;SDS011;48787;46.494;-1.782;2022-07-23T05:32:45;1.00;;;0.85;;
62736;SDS011;48787;46.494;-1.782;2022-07-23T05:35:11;1.65;;;1.10;;
62736;SDS011;48787;46.494;-1.782;2022-07-23T05:37:37;2.00;;;0.90;;
62736;SDS011;48787;46.494;-1.782;2022-07-23T05:40:04;0.90;;;0.90;;
62736;SDS011;48787;46.494;-1.782;2022-07-23T05:42:37;1.17;;;0.70;;
62736;SDS011;48787;46.494;-1.782;2022-07-23T05:45:03;0.85;;;0.75;;
62736;SDS011;48787;46.494;-1.782;2022-07-23T05:47:39;1.33;;;0.93;;
62736;SDS011;48787;46.494;-1.782;2022-07-23T05:50:05;1.23;;;0.98;;
62736;SDS011;48787;46.494;-1.782;2022-07-23T05:52:31;1.23;;;0.90;;
62736;SDS011;48787;46.494;-1.782;2022-07-23T05:54:57;0.93;;;0.85;;
62736;SDS011;48787;46.494;-1.782;2022-07-23T05:57:23;0.80;;;0.80;;
62736;SDS011;48787;46.494;-1.782;2022-07-23T05:59:49;2.15;;;0.90;;
62736;SDS011;48787;46.494;-1.782;2022-07-23T06:02:15;1.00;;;0.90;;
62736;SDS011;48787;46.494;-1.782;2022-07-23T06:04:41;1.15;;;0.90;;
62736;SDS011;48787;46.494;-1.782;2022-07-23T06:07:07;1.42;;;0.85;;
62736;SDS011;48787;46.494;-1.782;2022-07-23T06:09:33;1.58;;;1.00;;
62736;SDS011;48787;46.494;-1.782;2022-07-23T06:11:59;1.45;;;0.98;;
62736;SDS011;48787;46.494;-1.782;2022-07-23T06:14:25;0.95;;;0.85;;
62736;SDS011;48787;46.494;-1.782;2022-07-23T06:16:51;2.13;;;1.00;;
62736;SDS011;48787;46.494;-1.782;2022-07-23T06:19:17;1.13;;;0.90;;
62736;SDS011;48787;46.494;-1.782;2022-07-23T06:21:43;1.55;;;1.10;;
62736;SDS011;48787;46.494;-1.782;2022-07-23T06:24:09;2.45;;;0.90;;
62736;SDS011;48787;46.494;-1.782;2022-07-23T06:26:35;3.05;;;1.10;;
62736;SDS011;48787;46.494;-1.782;2022-07-23T06:29:01;2.45;;;0.90;;
62736;SDS011;48787;46.494;-1.782;2022-07-23T06:31:28;1.00;;;0.90;;
62736;SDS011;48787;46.494;-1.782;2022-07-23T06:33:54;1.27;;;0.80;;
62736;SDS011;48787;46.494;-1.782;2022-07-23T06:36:20;0.70;;;0.70;;
62736;SDS011;48787;46.494;-1.782;2022-07-23T06:38:46;0.70;;;0.70;;
62736;SDS011;48787;46.494;-1.782;2022-07-23T06:41:12;1.98;;;0.90;;
62736;SDS011;48787;46.494;-1.782;2022-07-23T06:43:38;1.20;;;1.00;;
62736;SDS011;48787;46.494;-1.782;2022-07-23T06:46:04;0.70;;;0.70;;
62736;SDS011;48787;46.494;-1.782;2022-07-23T06:48:30;0.80;;;0.80;;
62736;SDS011;48787;46.494;-1.782;2022-07-23T06:50:59;2.05;;;0.80;;
62736;SDS011;48787;46.494;-1.782;2022-07-23T06:53:25;1.20;;;0.80;;
62736;SDS011;48787;46.494;-1.782;2022-07-23T06:55:51;0.82;;;0.80;;
62736;SDS011;48787;46.494;-1.782;2022-07-23T06:58:17;1.58;;;1.10;;
62736;SDS011;48787;46.494;-1.782;2022-07-23T07:00:44;1.17;;;0.80;;
62736;SDS011;48787;46.494;-1.782;2022-07-23T07:03:10;1.55;;;0.70;;
62736;SDS011;48787;46.494;-1.782;2022-07-23T07:05:36;1.25;;;0.90;;
62736;SDS011;48787;46.494;-1.782;2022-07-23T07:08:04;2.20;;;0.95;;
62736;SDS011;48787;46.494;-1.782;2022-07-23T07:10:30;1.60;;;0.77;;
62736;SDS011;48787;46.494;-1.782;2022-07-23T07:12:56;1.70;;;0.65;;
62736;SDS011;48787;46.494;-1.782;2022-07-23T07:15:22;2.45;;;0.90;;
62736;SDS011;48787;46.494;-1.782;2022-07-23T07:17:48;1.13;;;0.80;;
62736;SDS011;48787;46.494;-1.782;2022-07-23T07:20:14;1.25;;;0.80;;
62736;SDS011;48787;46.494;-1.782;2022-07-23T07:22:40;0.82;;;0.70;;
62736;SDS011;48787;46.494;-1.782;2022-07-23T07:25:07;0.60;;;0.60;;
62736;SDS011;48787;46.494;-1.782;2022-07-23T07:27:33;1.85;;;0.90;;
62736;SDS011;48787;46.494;-1.782;2022-07-23T07:29:59;1.05;;;0.60;;
62736;SDS011;48787;46.494;-1.782;2022-07-23T07:32:25;1.25;;;0.60;;
62736;SDS011;48787;46.494;-1.782;2022-07-23T07:34:51;1.50;;;0.80;;
62736;SDS011;48787;46.494;-1.782;2022-07-23T07:37:17;2.00;;;0.77;;
62736;SDS011;48787;46.494;-1.782;2022-07-23T07:39:43;0.88;;;0.80;;
62736;SDS011;48787;46.494;-1.782;2022-07-23T07:42:09;0.75;;;0.70;;
62736;SDS011;48787;46.494;-1.782;2022-07-23T07:44:35;1.88;;;0.90;;
62736;SDS011;48787;46.494;-1.782;2022-07-23T07:47:01;1.20;;;0.70;;
62736;SDS011;48787;46.494;-1.782;2022-07-23T07:49:27;1.20;;;0.60;;
62736;SDS011;48787;46.494;-1.782;2022-07-23T07:51:54;1.13;;;0.85;;
62736;SDS011;48787;46.494;-1.782;2022-07-23T07:54:20;1.35;;;0.82;;
62736;SDS011;48787;46.494;-1.782;2022-07-23T07:56:46;1.77;;;0.80;;
62736;SDS011;48787;46.494;-1.782;2022-07-23T07:59:13;0.70;;;0.70;;
62736;SDS011;48787;46.494;-1.782;2022-07-23T08:01:39;2.35;;;1.10;;
62736;SDS011;48787;46.494;-1.782;2022-07-23T08:04:05;1.38;;;0.63;;
62736;SDS011;48787;46.494;-1.782;2022-07-23T08:06:32;1.60;;;0.80;;
62736;SDS011;48787;46.494;-1.782;2022-07-23T08:08:58;1.05;;;0.73;;
62736;SDS011;48787;46.494;-1.782;2022-07-23T08:11:24;1.50;;;1.05;;
62736;SDS011;48787;46.494;-1.782;2022-07-23T08:13:50;1.05;;;0.60;;
62736;SDS011;48787;46.494;-1.782;2022-07-23T08:16:16;1.65;;;0.80;;
62736;SDS011;48787;46.494;-1.782;2022-07-23T08:18:42;0.60;;;0.60;;
62736;SDS011;48787;46.494;-1.782;2022-07-23T08:21:08;0.60;;;0.60;;
62736;SDS011;48787;46.494;-1.782;2022-07-23T08:23:34;0.80;;;0.80;;
62736;SDS011;48787;46.494;-1.782;2022-07-23T08:26:00;1.67;;;0.52;;
62736;SDS011;48787;46.494;-1.782;2022-07-23T08:28:26;0.57;;;0.57;;
62736;SDS011;48787;46.494;-1.782;2022-07-23T08:30:52;1.00;;;0.90;;
62736;SDS011;48787;46.494;-1.782;2022-07-23T08:33:18;0.75;;;0.70;;
62736;SDS011;48787;46.494;-1.782;2022-07-23T08:35:46;0.70;;;0.68;;
62736;SDS011;48787;46.494;-1.782;2022-07-23T08:38:13;1.13;;;0.90;;
62736;SDS011;48787;46.494;-1.782;2022-07-23T08:40:41;1.35;;;0.90;;
62736;SDS011;48787;46.494;-1.782;2022-07-23T08:43:08;2.15;;;1.20;;
62736;SDS011;48787;46.494;-1.782;2022-07-23T08:45:36;1.50;;;0.80;;
62736;SDS011;48787;46.494;-1.782;2022-07-23T08:48:02;1.75;;;1.27;;
62736;SDS011;48787;46.494;-1.782;2022-07-23T08:50:29;1.88;;;1.10;;
62736;SDS011;48787;46.494;-1.782;2022-07-23T08:52:55;2.25;;;1.20;;
62736;SDS011;48787;46.494;-1.782;2022-07-23T08:55:22;2.70;;;1.38;;
62736;SDS011;48787;46.494;-1.782;2022-07-23T08:57:49;2.28;;;1.25;;
62736;SDS011;48787;46.494;-1.782;2022-07-23T09:00:16;3.28;;;1.73;;
62736;SDS011;48787;46.494;-1.782;2022-07-23T09:02:43;3.33;;;1.38;;
62736;SDS011;48787;46.494;-1.782;2022-07-23T09:05:10;3.45;;;1.65;;
62736;SDS011;48787;46.494;-1.782;2022-07-23T09:07:37;3.10;;;1.52;;
62736;SDS011;48787;46.494;-1.782;2022-07-23T09:10:07;5.85;;;2.00;;
62736;SDS011;48787;46.494;-1.782;2022-07-23T09:12:34;4.05;;;1.60;;
62736;SDS011;48787;46.494;-1.782;2022-07-23T09:15:06;4.15;;;1.70;;
62736;SDS011;48787;46.494;-1.782;2022-07-23T09:17:37;4.03;;;1.60;;
62736;SDS011;48787;46.494;-1.782;2022-07-23T09:20:07;3.35;;;1.67;;
62736;SDS011;48787;46.494;-1.782;2022-07-23T09:22:34;5.07;;;1.40;;
62736;SDS011;48787;46.494;-1.782;2022-07-23T09:25:07;3.38;;;1.50;;
62736;SDS011;48787;46.494;-1.782;2022-07-23T09:30:32;3.95;;;1.50;;
62736;SDS011;48787;46.494;-1.782;2022-07-23T09:33:07;3.85;;;1.60;;
62736;SDS011;48787;46.494;-1.782;2022-07-23T09:35:49;2.90;;;1.40;;
62736;SDS011;48787;46.494;-1.782;2022-07-23T09:38:16;2.80;;;1.40;;
62736;SDS011;48787;46.494;-1.782;2022-07-23T09:40:43;3.97;;;1.58;;
62736;SDS011;48787;46.494;-1.782;2022-07-23T09:43:09;2.28;;;1.33;;
62736;SDS011;48787;46.494;-1.782;2022-07-23T09:45:35;2.35;;;1.25;;
62736;SDS011;48787;46.494;-1.782;2022-07-23T09:48:10;2.15;;;1.30;;
62736;SDS011;48787;46.494;-1.782;2022-07-23T09:50:37;2.58;;;1.20;;
62736;SDS011;48787;46.494;-1.782;2022-07-23T09:53:03;3.50;;;1.40;;
62736;SDS011;48787;46.494;-1.782;2022-07-23T09:55:33;2.58;;;1.50;;
62736;SDS011;48787;46.494;-1.782;2022-07-23T09:58:03;4.28;;;1.63;;
62736;SDS011;48787;46.494;-1.782;2022-07-23T10:00:30;3.30;;;1.63;;
62736;SDS011;48787;46.494;-1.782;2022-07-23T10:02:57;3.65;;;1.48;;
62736;SDS011;48787;46.494;-1.782;2022-07-23T10:05:23;4.30;;;1.27;;
62736;SDS011;48787;46.494;-1.782;2022-07-23T10:07:50;3.25;;;1.30;;
62736;SDS011;48787;46.494;-1.782;2022-07-23T10:10:17;2.42;;;1.40;;
62736;SDS011;48787;46.494;-1.782;2022-07-23T10:12:44;2.08;;;1.30;;
62736;SDS011;48787;46.494;-1.782;2022-07-23T10:15:10;5.80;;;3.78;;
62736;SDS011;48787;46.494;-1.782;2022-07-23T10:17:36;12.77;;;6.70;;
62736;SDS011;48787;46.494;-1.782;2022-07-23T10:20:03;13.25;;;7.55;;
62736;SDS011;48787;46.494;-1.782;2022-07-23T10:22:40;12.75;;;7.45;;
62736;SDS011;48787;46.494;-1.782;2022-07-23T10:37:50;11.77;;;6.57;;
62736;SDS011;48787;46.494;-1.782;2022-07-23T10:40:20;10.43;;;6.38;;
62736;SDS011;48787;46.494;-1.782;2022-07-23T10:42:48;11.55;;;6.57;;
62736;SDS011;48787;46.494;-1.782;2022-07-23T10:45:24;9.52;;;5.72;;
62736;SDS011;48787;46.494;-1.782;2022-07-23T10:47:50;10.38;;;6.03;;
62736;SDS011;48787;46.494;-1.782;2022-07-23T10:50:35;11.18;;;6.85;;
62736;SDS011;48787;46.494;-1.782;2022-07-23T10:57:59;10.13;;;6.45;;
62736;SDS011;48787;46.494;-1.782;2022-07-23T11:00:26;8.48;;;5.75;;
62736;SDS011;48787;46.494;-1.782;2022-07-23T11:03:03;9.98;;;6.53;;
62736;SDS011;48787;46.494;-1.782;2022-07-23T11:10:39;9.60;;;5.50;;
62736;SDS011;48787;46.494;-1.782;2022-07-23T11:31:55;11.27;;;6.10;;
62736;SDS011;48787;46.494;-1.782;2022-07-23T11:34:26;11.10;;;6.15;;
62736;SDS011;48787;46.494;-1.782;2022-07-23T11:36:53;10.40;;;6.07;;
62736;SDS011;48787;46.494;-1.782;2022-07-23T11:39:20;10.88;;;5.93;;
62736;SDS011;48787;46.494;-1.782;2022-07-23T11:41:46;10.50;;;5.75;;
62736;SDS011;48787;46.494;-1.782;2022-07-23T11:44:29;10.68;;;6.15;;
62736;SDS011;48787;46.494;-1.782;2022-07-23T11:46:56;8.77;;;5.38;;
62736;SDS011;48787;46.494;-1.782;2022-07-23T11:49:25;9.98;;;5.82;;
62736;SDS011;48787;46.494;-1.782;2022-07-23T11:52:07;9.50;;;5.90;;
62736;SDS011;48787;46.494;-1.782;2022-07-23T11:54:34;9.68;;;5.78;;
62736;SDS011;48787;46.494;-1.782;2022-07-23T11:57:02;9.63;;;5.90;;
62736;SDS011;48787;46.494;-1.782;2022-07-23T11:59:31;9.55;;;6.30;;
62736;SDS011;48787;46.494;-1.782;2022-07-23T12:02:01;9.93;;;6.03;;
62736;SDS011;48787;46.494;-1.782;2022-07-23T12:04:42;10.95;;;6.40;;
62736;SDS011;48787;46.494;-1.782;2022-07-23T12:09:52;8.15;;;5.68;;
62736;SDS011;48787;46.494;-1.782;2022-07-23T12:12:19;9.40;;;5.68;;
62736;SDS011;48787;46.494;-1.782;2022-07-23T12:17:18;10.93;;;6.10;;
62736;SDS011;48787;46.494;-1.782;2022-07-23T12:19:44;9.35;;;5.65;;
62736;SDS011;48787;46.494;-1.782;2022-07-23T12:22:11;9.15;;;5.20;;
62736;SDS011;48787;46.494;-1.782;2022-07-23T12:27:24;7.53;;;5.53;;
62736;SDS011;48787;46.494;-1.782;2022-07-23T12:29:50;9.70;;;5.18;;
62736;SDS011;48787;46.494;-1.782;2022-07-23T12:32:20;8.23;;;5.38;;
62736;SDS011;48787;46.494;-1.782;2022-07-23T12:34:48;8.50;;;5.05;;
62736;SDS011;48787;46.494;-1.782;2022-07-23T12:37:27;10.05;;;5.50;;
62736;SDS011;48787;46.494;-1.782;2022-07-23T12:39:53;8.27;;;4.88;;
62736;SDS011;48787;46.494;-1.782;2022-07-23T12:42:19;8.45;;;5.00;;
62736;SDS011;48787;46.494;-1.782;2022-07-23T12:45:05;7.72;;;4.80;;
62736;SDS011;48787;46.494;-1.782;2022-07-23T12:47:49;8.50;;;5.70;;
62736;SDS011;48787;46.494;-1.782;2022-07-23T12:53:03;7.47;;;4.88;;
62736;SDS011;48787;46.494;-1.782;2022-07-23T12:55:30;8.00;;;4.88;;
62736;SDS011;48787;46.494;-1.782;2022-07-23T12:58:02;6.90;;;4.50;;
62736;SDS011;48787;46.494;-1.782;2022-07-23T13:00:30;8.52;;;5.03;;
62736;SDS011;48787;46.494;-1.782;2022-07-23T13:02:56;12.50;;;4.82;;
62736;SDS011;48787;46.494;-1.782;2022-07-23T13:05:22;7.10;;;4.63;;
62736;SDS011;48787;46.494;-1.782;2022-07-23T13:07:48;7.72;;;4.43;;
62736;SDS011;48787;46.494;-1.782;2022-07-23T13:10:14;6.38;;;4.57;;
62736;SDS011;48787;46.494;-1.782;2022-07-23T13:12:40;6.70;;;3.78;;
62736;SDS011;48787;46.494;-1.782;2022-07-23T13:15:06;8.95;;;4.70;;
62736;SDS011;48787;46.494;-1.782;2022-07-23T13:17:32;7.85;;;5.07;;
62736;SDS011;48787;46.494;-1.782;2022-07-23T13:19:58;6.28;;;4.47;;
62736;SDS011;48787;46.494;-1.782;2022-07-23T13:22:24;6.90;;;4.32;;
62736;SDS011;48787;46.494;-1.782;2022-07-23T13:24:50;6.78;;;4.40;;
62736;SDS011;48787;46.494;-1.782;2022-07-23T13:27:17;6.55;;;4.28;;
62736;SDS011;48787;46.494;-1.782;2022-07-23T13:29:43;6.30;;;3.65;;
62736;SDS011;48787;46.494;-1.782;2022-07-23T13:32:09;5.22;;;3.78;;
62736;SDS011;48787;46.494;-1.782;2022-07-23T13:34:35;6.38;;;3.92;;
62736;SDS011;48787;46.494;-1.782;2022-07-23T13:37:01;5.97;;;3.90;;
62736;SDS011;48787;46.494;-1.782;2022-07-23T13:39:27;7.30;;;3.63;;
62736;SDS011;48787;46.494;-1.782;2022-07-23T13:41:53;7.03;;;3.28;;
62736;SDS011;48787;46.494;-1.782;2022-07-23T13:44:19;5.03;;;3.95;;
62736;SDS011;48787;46.494;-1.782;2022-07-23T13:46:45;5.20;;;3.40;;
62736;SDS011;48787;46.494;-1.782;2022-07-23T13:49:11;6.22;;;3.72;;
62736;SDS011;48787;46.494;-1.782;2022-07-23T13:51:37;4.93;;;3.42;;
62736;SDS011;48787;46.494;-1.782;2022-07-23T13:54:04;4.07;;;2.90;;
62736;SDS011;48787;46.494;-1.782;2022-07-23T13:56:30;5.43;;;3.45;;
62736;SDS011;48787;46.494;-1.782;2022-07-23T13:58:56;5.38;;;3.20;;
62736;SDS011;48787;46.494;-1.782;2022-07-23T14:01:22;5.20;;;2.97;;
62736;SDS011;48787;46.494;-1.782;2022-07-23T14:03:48;5.72;;;3.30;;
62736;SDS011;48787;46.494;-1.782;2022-07-23T14:06:14;5.03;;;3.10;;
62736;SDS011;48787;46.494;-1.782;2022-07-23T14:08:40;5.90;;;3.00;;
62736;SDS011;48787;46.494;-1.782;2022-07-23T14:11:06;4.20;;;2.85;;
62736;SDS011;48787;46.494;-1.782;2022-07-23T14:13:32;5.75;;;3.20;;
62736;SDS011;48787;46.494;-1.782;2022-07-23T14:15:58;4.07;;;2.92;;
62736;SDS011;48787;46.494;-1.782;2022-07-23T14:18:25;4.32;;;3.00;;
62736;SDS011;48787;46.494;-1.782;2022-07-23T14:20:51;3.25;;;2.90;;
62736;SDS011;48787;46.494;-1.782;2022-07-23T14:23:17;5.78;;;2.90;;
62736;SDS011;48787;46.494;-1.782;2022-07-23T14:25:43;4.47;;;2.78;;
62736;SDS011;48787;46.494;-1.782;2022-07-23T14:28:09;4.45;;;2.60;;
62736;SDS011;48787;46.494;-1.782;2022-07-23T14:30:36;3.05;;;2.50;;
62736;SDS011;48787;46.494;-1.782;2022-07-23T14:33:03;4.90;;;2.40;;
62736;SDS011;48787;46.494;-1.782;2022-07-23T14:35:29;3.75;;;2.15;;
62736;SDS011;48787;46.494;-1.782;2022-07-23T14:37:55;5.72;;;2.60;;
62736;SDS011;48787;46.494;-1.782;2022-07-23T14:40:22;3.53;;;2.47;;
62736;SDS011;48787;46.494;-1.782;2022-07-23T14:42:48;5.22;;;2.72;;
62736;SDS011;48787;46.494;-1.782;2022-07-23T14:45:14;4.72;;;2.55;;
62736;SDS011;48787;46.494;-1.782;2022-07-23T14:47:40;3.13;;;2.40;;
62736;SDS011;48787;46.494;-1.782;2022-07-23T14:50:07;3.78;;;2.20;;
62736;SDS011;48787;46.494;-1.782;2022-07-23T14:52:33;4.57;;;2.60;;
62736;SDS011;48787;46.494;-1.782;2022-07-23T14:54:59;3.47;;;2.40;;
62736;SDS011;48787;46.494;-1.782;2022-07-23T14:57:25;3.90;;;2.40;;
62736;SDS011;48787;46.494;-1.782;2022-07-23T14:59:51;5.53;;;2.35;;
62736;SDS011;48787;46.494;-1.782;2022-07-23T15:02:17;2.80;;;2.05;;
62736;SDS011;48787;46.494;-1.782;2022-07-23T15:04:43;3.25;;;2.22;;
62736;SDS011;48787;46.494;-1.782;2022-07-23T15:07:09;3.20;;;2.10;;
62736;SDS011;48787;46.494;-1.782;2022-07-23T15:09:35;2.67;;;2.13;;
62736;SDS011;48787;46.494;-1.782;2022-07-23T15:12:02;2.03;;;1.83;;
62736;SDS011;48787;46.494;-1.782;2022-07-23T15:14:28;2.95;;;2.00;;
62736;SDS011;48787;46.494;-1.782;2022-07-23T15:16:54;2.90;;;2.03;;
62736;SDS011;48787;46.494;-1.782;2022-07-23T15:19:20;3.90;;;2.28;;
62736;SDS011;48787;46.494;-1.782;2022-07-23T15:21:46;3.00;;;2.10;;
62736;SDS011;48787;46.494;-1.782;2022-07-23T15:24:13;2.72;;;2.00;;
62736;SDS011;48787;46.494;-1.782;2022-07-23T15:26:39;2.83;;;1.80;;